sensor_id;sensor_type;location;lat;lon;timestamp;temperature;humidity
40848;DHT22;26570;50.962;5.340;2022-08-19T00:01:21;18.70;99.90
40848;DHT22;26570;50.962;5.340;2022-08-19T00:04:09;18.70;99.90
40848;DHT22;26570;50.962;5.340;2022-08-19T00:06:55;18.60;99.90
40848;DHT22;26570;50.962;5.340;2022-08-19T00:09:40;18.70;99.90
40848;DHT22;26570;50.962;5.340;2022-08-19T00:12:25;18.60;99.90
40848;DHT22;26570;50.962;5.340;2022-08-19T00:15:13;18.60;99.90
40848;DHT22;26570;50.962;5.340;2022-08-19T00:17:57;18.50;99.90
40848;DHT22;26570;50.962;5.340;2022-08-19T00:20:42;18.50;99.90
40848;DHT22;26570;50.962;5.340;2022-08-19T00:23:27;18.50;99.90
40848;DHT22;26570;50.962;5.340;2022-08-19T00:26:11;18.40;99.90
40848;DHT22;26570;50.962;5.340;2022-08-19T00:28:56;18.40;99.90
40848;DHT22;26570;50.962;5.340;2022-08-19T00:31:42;18.40;99.90
40848;DHT22;26570;50.962;5.340;2022-08-19T00:34:27;18.40;99.90
40848;DHT22;26570;50.962;5.340;2022-08-19T00:37:12;18.40;99.90
40848;DHT22;26570;50.962;5.340;2022-08-19T00:39:57;18.40;99.90
40848;DHT22;26570;50.962;5.340;2022-08-19T00:42:42;18.30;99.90
40848;DHT22;26570;50.962;5.340;2022-08-19T00:45:28;18.30;99.90
40848;DHT22;26570;50.962;5.340;2022-08-19T00:48:14;18.30;99.90
40848;DHT22;26570;50.962;5.340;2022-08-19T00:51:00;18.30;99.90
40848;DHT22;26570;50.962;5.340;2022-08-19T00:53:45;18.20;99.90
40848;DHT22;26570;50.962;5.340;2022-08-19T00:56:30;18.20;99.90
40848;DHT22;26570;50.962;5.340;2022-08-19T00:59:16;18.20;99.90
40848;DHT22;26570;50.962;5.340;2022-08-19T01:02:03;18.10;99.90
40848;DHT22;26570;50.962;5.340;2022-08-19T01:04:49;18.10;99.90
40848;DHT22;26570;50.962;5.340;2022-08-19T01:07:35;18.10;99.90
40848;DHT22;26570;50.962;5.340;2022-08-19T01:10:27;18.10;99.90
40848;DHT22;26570;50.962;5.340;2022-08-19T01:13:16;18.10;99.90
40848;DHT22;26570;50.962;5.340;2022-08-19T01:16:05;18.10;99.90
40848;DHT22;26570;50.962;5.340;2022-08-19T01:18:50;18.10;99.90
40848;DHT22;26570;50.962;5.340;2022-08-19T01:21:40;18.20;99.90
40848;DHT22;26570;50.962;5.340;2022-08-19T01:24:26;18.10;99.90
40848;DHT22;26570;50.962;5.340;2022-08-19T01:27:11;18.20;99.90
40848;DHT22;26570;50.962;5.340;2022-08-19T01:29:56;18.20;99.90
40848;DHT22;26570;50.962;5.340;2022-08-19T01:32:41;18.20;99.90
40848;DHT22;26570;50.962;5.340;2022-08-19T01:35:29;18.10;99.90
40848;DHT22;26570;50.962;5.340;2022-08-19T01:38:26;18.20;99.90
40848;DHT22;26570;50.962;5.340;2022-08-19T01:41:12;18.20;99.90
40848;DHT22;26570;50.962;5.340;2022-08-19T01:43:57;18.30;99.90
40848;DHT22;26570;50.962;5.340;2022-08-19T01:46:42;18.30;99.90
40848;DHT22;26570;50.962;5.340;2022-08-19T01:49:28;18.30;99.90
40848;DHT22;26570;50.962;5.340;2022-08-19T01:52:12;18.30;99.90
40848;DHT22;26570;50.962;5.340;2022-08-19T01:54:57;18.20;99.90
40848;DHT22;26570;50.962;5.340;2022-08-19T01:57:45;18.20;99.90
40848;DHT22;26570;50.962;5.340;2022-08-19T02:00:31;18.20;99.90
40848;DHT22;26570;50.962;5.340;2022-08-19T02:03:16;18.20;99.90
40848;DHT22;26570;50.962;5.340;2022-08-19T02:06:02;18.10;99.90
40848;DHT22;26570;50.962;5.340;2022-08-19T02:08:47;18.10;99.90
40848;DHT22;26570;50.962;5.340;2022-08-19T02:11:34;18.10;99.90
40848;DHT22;26570;50.962;5.340;2022-08-19T02:14:19;18.10;99.90
40848;DHT22;26570;50.962;5.340;2022-08-19T02:17:05;18.10;99.90
40848;DHT22;26570;50.962;5.340;2022-08-19T02:19:50;18.00;99.90
40848;DHT22;26570;50.962;5.340;2022-08-19T02:22:36;18.10;99.90
40848;DHT22;26570;50.962;5.340;2022-08-19T02:25:21;18.00;99.90
40848;DHT22;26570;50.962;5.340;2022-08-19T02:28:07;18.00;99.90
40848;DHT22;26570;50.962;5.340;2022-08-19T02:30:52;18.00;99.90
40848;DHT22;26570;50.962;5.340;2022-08-19T02:33:39;18.00;99.90
40848;DHT22;26570;50.962;5.340;2022-08-19T02:36:25;17.90;99.90
40848;DHT22;26570;50.962;5.340;2022-08-19T02:39:10;17.90;99.90
40848;DHT22;26570;50.962;5.340;2022-08-19T02:41:54;17.90;99.90
40848;DHT22;26570;50.962;5.340;2022-08-19T02:44:38;18.00;99.90
40848;DHT22;26570;50.962;5.340;2022-08-19T02:47:23;17.90;99.90
40848;DHT22;26570;50.962;5.340;2022-08-19T02:50:09;17.90;99.90
40848;DHT22;26570;50.962;5.340;2022-08-19T02:52:54;17.90;99.90
40848;DHT22;26570;50.962;5.340;2022-08-19T02:55:48;17.80;99.90
40848;DHT22;26570;50.962;5.340;2022-08-19T02:58:33;17.90;99.90
40848;DHT22;26570;50.962;5.340;2022-08-19T03:01:24;17.80;99.90
40848;DHT22;26570;50.962;5.340;2022-08-19T03:04:12;17.90;99.90
40848;DHT22;26570;50.962;5.340;2022-08-19T03:06:58;17.80;99.90
40848;DHT22;26570;50.962;5.340;2022-08-19T03:09:42;17.80;99.90
40848;DHT22;26570;50.962;5.340;2022-08-19T03:12:27;17.80;99.90
40848;DHT22;26570;50.962;5.340;2022-08-19T03:15:12;17.80;99.90
40848;DHT22;26570;50.962;5.340;2022-08-19T03:17:57;17.70;99.90
40848;DHT22;26570;50.962;5.340;2022-08-19T03:20:47;17.70;99.90
40848;DHT22;26570;50.962;5.340;2022-08-19T03:23:32;17.70;99.90
40848;DHT22;26570;50.962;5.340;2022-08-19T03:26:17;17.70;99.90
40848;DHT22;26570;50.962;5.340;2022-08-19T03:29:03;17.70;99.90
40848;DHT22;26570;50.962;5.340;2022-08-19T03:31:49;17.60;99.90
40848;DHT22;26570;50.962;5.340;2022-08-19T03:34:38;17.60;99.90
40848;DHT22;26570;50.962;5.340;2022-08-19T03:37:22;17.60;99.90
40848;DHT22;26570;50.962;5.340;2022-08-19T03:40:07;17.60;99.90
40848;DHT22;26570;50.962;5.340;2022-08-19T03:42:52;17.50;99.90
40848;DHT22;26570;50.962;5.340;2022-08-19T03:45:37;17.50;99.90
40848;DHT22;26570;50.962;5.340;2022-08-19T03:48:21;17.50;99.90
40848;DHT22;26570;50.962;5.340;2022-08-19T03:51:07;17.50;99.90
40848;DHT22;26570;50.962;5.340;2022-08-19T03:53:54;17.40;99.90
40848;DHT22;26570;50.962;5.340;2022-08-19T03:56:41;17.40;99.90
40848;DHT22;26570;50.962;5.340;2022-08-19T03:59:32;17.40;99.90
40848;DHT22;26570;50.962;5.340;2022-08-19T04:02:17;17.40;99.90
40848;DHT22;26570;50.962;5.340;2022-08-19T04:05:04;17.30;99.90
40848;DHT22;26570;50.962;5.340;2022-08-19T04:07:49;17.30;99.90
40848;DHT22;26570;50.962;5.340;2022-08-19T04:10:37;17.30;99.90
40848;DHT22;26570;50.962;5.340;2022-08-19T04:13:22;17.30;99.90
40848;DHT22;26570;50.962;5.340;2022-08-19T04:16:07;17.20;99.90
40848;DHT22;26570;50.962;5.340;2022-08-19T04:18:52;17.10;99.90
40848;DHT22;26570;50.962;5.340;2022-08-19T04:21:37;17.10;99.90
40848;DHT22;26570;50.962;5.340;2022-08-19T04:24:22;17.10;99.90
40848;DHT22;26570;50.962;5.340;2022-08-19T04:27:08;17.10;99.90
40848;DHT22;26570;50.962;5.340;2022-08-19T04:29:53;17.00;99.90
40848;DHT22;26570;50.962;5.340;2022-08-19T04:32:40;17.00;99.90
40848;DHT22;26570;50.962;5.340;2022-08-19T04:35:27;16.90;99.90
40848;DHT22;26570;50.962;5.340;2022-08-19T04:38:13;17.00;99.90
40848;DHT22;26570;50.962;5.340;2022-08-19T04:40:59;17.00;99.90
40848;DHT22;26570;50.962;5.340;2022-08-19T04:44:02;17.10;99.90
40848;DHT22;26570;50.962;5.340;2022-08-19T04:46:49;17.00;99.90
40848;DHT22;26570;50.962;5.340;2022-08-19T04:49:34;16.90;99.90
40848;DHT22;26570;50.962;5.340;2022-08-19T04:52:19;17.00;99.90
40848;DHT22;26570;50.962;5.340;2022-08-19T04:55:04;17.00;99.90
40848;DHT22;26570;50.962;5.340;2022-08-19T04:57:50;17.10;99.90
40848;DHT22;26570;50.962;5.340;2022-08-19T05:00:38;17.00;99.90
40848;DHT22;26570;50.962;5.340;2022-08-19T05:03:23;17.10;99.90
40848;DHT22;26570;50.962;5.340;2022-08-19T05:06:11;17.10;99.90
40848;DHT22;26570;50.962;5.340;2022-08-19T05:08:56;17.10;99.90
40848;DHT22;26570;50.962;5.340;2022-08-19T05:11:41;17.10;99.90
40848;DHT22;26570;50.962;5.340;2022-08-19T05:14:26;17.10;99.90
40848;DHT22;26570;50.962;5.340;2022-08-19T05:17:10;17.10;99.90
40848;DHT22;26570;50.962;5.340;2022-08-19T05:19:55;17.20;99.90
40848;DHT22;26570;50.962;5.340;2022-08-19T05:22:59;17.20;99.90
40848;DHT22;26570;50.962;5.340;2022-08-19T05:25:43;17.20;99.90
40848;DHT22;26570;50.962;5.340;2022-08-19T05:28:28;17.20;99.90
40848;DHT22;26570;50.962;5.340;2022-08-19T05:31:13;17.40;99.90
40848;DHT22;26570;50.962;5.340;2022-08-19T05:33:58;17.50;99.90
40848;DHT22;26570;50.962;5.340;2022-08-19T05:36:44;17.50;99.90
40848;DHT22;26570;50.962;5.340;2022-08-19T05:39:31;17.50;99.90
40848;DHT22;26570;50.962;5.340;2022-08-19T05:42:16;17.70;99.90
40848;DHT22;26570;50.962;5.340;2022-08-19T05:45:01;17.80;99.90
40848;DHT22;26570;50.962;5.340;2022-08-19T05:47:46;18.00;99.90
40848;DHT22;26570;50.962;5.340;2022-08-19T05:50:31;18.20;99.90
40848;DHT22;26570;50.962;5.340;2022-08-19T05:53:16;18.30;99.90
40848;DHT22;26570;50.962;5.340;2022-08-19T05:56:05;18.40;99.90
40848;DHT22;26570;50.962;5.340;2022-08-19T05:58:51;18.60;99.90
40848;DHT22;26570;50.962;5.340;2022-08-19T06:01:42;18.70;99.90
40848;DHT22;26570;50.962;5.340;2022-08-19T06:04:27;18.90;99.90
40848;DHT22;26570;50.962;5.340;2022-08-19T06:07:12;19.00;99.90
40848;DHT22;26570;50.962;5.340;2022-08-19T06:09:56;19.10;99.90
40848;DHT22;26570;50.962;5.340;2022-08-19T06:12:41;19.10;99.90
40848;DHT22;26570;50.962;5.340;2022-08-19T06:15:26;19.30;99.90
40848;DHT22;26570;50.962;5.340;2022-08-19T06:18:15;19.40;99.90
40848;DHT22;26570;50.962;5.340;2022-08-19T06:21:00;19.50;99.90
40848;DHT22;26570;50.962;5.340;2022-08-19T06:23:48;19.50;99.90
40848;DHT22;26570;50.962;5.340;2022-08-19T06:26:35;19.60;99.90
40848;DHT22;26570;50.962;5.340;2022-08-19T06:29:23;19.70;99.90
40848;DHT22;26570;50.962;5.340;2022-08-19T06:32:08;19.80;99.90
40848;DHT22;26570;50.962;5.340;2022-08-19T06:34:53;19.90;99.90
40848;DHT22;26570;50.962;5.340;2022-08-19T06:37:38;19.90;99.90
40848;DHT22;26570;50.962;5.340;2022-08-19T06:40:23;20.10;99.90
40848;DHT22;26570;50.962;5.340;2022-08-19T06:43:07;20.20;99.90
40848;DHT22;26570;50.962;5.340;2022-08-19T06:45:52;20.60;99.90
40848;DHT22;26570;50.962;5.340;2022-08-19T06:48:39;21.40;99.90
40848;DHT22;26570;50.962;5.340;2022-08-19T06:51:24;22.10;99.90
40848;DHT22;26570;50.962;5.340;2022-08-19T06:54:10;22.20;99.90
40848;DHT22;26570;50.962;5.340;2022-08-19T06:56:56;22.30;99.90
40848;DHT22;26570;50.962;5.340;2022-08-19T06:59:41;22.50;99.90
40848;DHT22;26570;50.962;5.340;2022-08-19T07:02:26;22.80;99.90
40848;DHT22;26570;50.962;5.340;2022-08-19T07:05:11;23.00;99.90
40848;DHT22;26570;50.962;5.340;2022-08-19T07:07:58;23.00;99.90
40848;DHT22;26570;50.962;5.340;2022-08-19T07:10:45;23.20;99.90
40848;DHT22;26570;50.962;5.340;2022-08-19T07:13:30;23.30;99.90
40848;DHT22;26570;50.962;5.340;2022-08-19T07:16:18;23.10;99.90
40848;DHT22;26570;50.962;5.340;2022-08-19T07:19:03;22.80;99.90
40848;DHT22;26570;50.962;5.340;2022-08-19T07:21:49;22.70;99.90
40848;DHT22;26570;50.962;5.340;2022-08-19T07:24:37;22.40;99.90
40848;DHT22;26570;50.962;5.340;2022-08-19T07:27:22;22.20;99.90
40848;DHT22;26570;50.962;5.340;2022-08-19T07:30:08;22.10;99.90
40848;DHT22;26570;50.962;5.340;2022-08-19T07:32:53;21.90;99.90
40848;DHT22;26570;50.962;5.340;2022-08-19T07:35:37;21.90;99.90
40848;DHT22;26570;50.962;5.340;2022-08-19T07:38:22;21.80;99.90
40848;DHT22;26570;50.962;5.340;2022-08-19T07:41:10;22.00;99.90
40848;DHT22;26570;50.962;5.340;2022-08-19T07:43:56;22.10;99.90
40848;DHT22;26570;50.962;5.340;2022-08-19T07:46:44;22.10;99.90
40848;DHT22;26570;50.962;5.340;2022-08-19T07:49:29;21.90;99.90
40848;DHT22;26570;50.962;5.340;2022-08-19T07:52:15;22.00;99.90
40848;DHT22;26570;50.962;5.340;2022-08-19T07:55:01;22.10;99.90
40848;DHT22;26570;50.962;5.340;2022-08-19T07:57:48;22.30;99.90
40848;DHT22;26570;50.962;5.340;2022-08-19T08:00:33;22.30;99.90
40848;DHT22;26570;50.962;5.340;2022-08-19T08:03:21;22.40;99.90
40848;DHT22;26570;50.962;5.340;2022-08-19T08:06:27;22.50;99.90
40848;DHT22;26570;50.962;5.340;2022-08-19T08:09:34;22.40;99.90
40848;DHT22;26570;50.962;5.340;2022-08-19T08:12:28;22.50;99.90
40848;DHT22;26570;50.962;5.340;2022-08-19T08:15:14;22.40;99.90
40848;DHT22;26570;50.962;5.340;2022-08-19T08:18:02;22.40;99.90
40848;DHT22;26570;50.962;5.340;2022-08-19T08:20:47;22.40;99.90
40848;DHT22;26570;50.962;5.340;2022-08-19T08:23:32;22.50;99.90
40848;DHT22;26570;50.962;5.340;2022-08-19T08:26:17;22.60;99.90
40848;DHT22;26570;50.962;5.340;2022-08-19T08:29:02;22.40;99.90
40848;DHT22;26570;50.962;5.340;2022-08-19T08:31:47;22.40;99.90
40848;DHT22;26570;50.962;5.340;2022-08-19T08:34:31;22.50;99.90
40848;DHT22;26570;50.962;5.340;2022-08-19T08:37:16;22.70;99.90
40848;DHT22;26570;50.962;5.340;2022-08-19T08:43:07;23.10;99.90
40848;DHT22;26570;50.962;5.340;2022-08-19T08:46:03;23.50;99.90
40848;DHT22;26570;50.962;5.340;2022-08-19T08:48:56;24.40;99.90
40848;DHT22;26570;50.962;5.340;2022-08-19T08:51:50;24.90;99.90
40848;DHT22;26570;50.962;5.340;2022-08-19T08:54:48;24.90;99.90
40848;DHT22;26570;50.962;5.340;2022-08-19T09:00:36;25.10;99.90
40848;DHT22;26570;50.962;5.340;2022-08-19T09:03:24;25.80;99.90
40848;DHT22;26570;50.962;5.340;2022-08-19T09:06:25;26.70;99.90
40848;DHT22;26570;50.962;5.340;2022-08-19T09:09:33;27.20;99.90
40848;DHT22;26570;50.962;5.340;2022-08-19T09:12:45;27.70;99.90
40848;DHT22;26570;50.962;5.340;2022-08-19T09:15:38;28.30;99.90
40848;DHT22;26570;50.962;5.340;2022-08-19T09:18:24;28.30;98.70
40848;DHT22;26570;50.962;5.340;2022-08-19T09:21:09;28.30;98.80
40848;DHT22;26570;50.962;5.340;2022-08-19T09:23:54;28.10;99.20
40848;DHT22;26570;50.962;5.340;2022-08-19T09:26:38;28.20;99.00
40848;DHT22;26570;50.962;5.340;2022-08-19T09:29:23;28.60;98.50
40848;DHT22;26570;50.962;5.340;2022-08-19T09:32:08;28.70;97.90
40848;DHT22;26570;50.962;5.340;2022-08-19T09:34:53;28.60;97.00
40848;DHT22;26570;50.962;5.340;2022-08-19T09:37:38;28.50;97.50
40848;DHT22;26570;50.962;5.340;2022-08-19T09:40:24;29.10;97.00
40848;DHT22;26570;50.962;5.340;2022-08-19T09:43:09;29.10;96.00
40848;DHT22;26570;50.962;5.340;2022-08-19T09:45:55;28.90;96.40
40848;DHT22;26570;50.962;5.340;2022-08-19T09:48:40;28.80;96.70
40848;DHT22;26570;50.962;5.340;2022-08-19T09:51:27;28.40;96.60
40848;DHT22;26570;50.962;5.340;2022-08-19T09:54:14;28.20;96.00
40848;DHT22;26570;50.962;5.340;2022-08-19T09:56:59;28.00;96.90
40848;DHT22;26570;50.962;5.340;2022-08-19T09:59:47;28.10;96.40
40848;DHT22;26570;50.962;5.340;2022-08-19T10:02:32;28.60;96.30
40848;DHT22;26570;50.962;5.340;2022-08-19T10:05:17;28.80;95.70
40848;DHT22;26570;50.962;5.340;2022-08-19T10:08:33;29.10;94.90
40848;DHT22;26570;50.962;5.340;2022-08-19T10:11:19;28.90;94.10
40848;DHT22;26570;50.962;5.340;2022-08-19T10:14:04;28.90;94.50
40848;DHT22;26570;50.962;5.340;2022-08-19T10:16:50;28.80;94.30
40848;DHT22;26570;50.962;5.340;2022-08-19T10:19:35;28.40;94.40
40848;DHT22;26570;50.962;5.340;2022-08-19T10:22:20;28.30;94.90
40848;DHT22;26570;50.962;5.340;2022-08-19T10:25:06;28.20;95.00
40848;DHT22;26570;50.962;5.340;2022-08-19T10:27:50;28.30;94.60
40848;DHT22;26570;50.962;5.340;2022-08-19T10:30:36;28.10;94.50
40848;DHT22;26570;50.962;5.340;2022-08-19T10:33:21;28.10;95.10
40848;DHT22;26570;50.962;5.340;2022-08-19T10:36:15;28.20;94.80
40848;DHT22;26570;50.962;5.340;2022-08-19T10:39:06;28.30;95.00
40848;DHT22;26570;50.962;5.340;2022-08-19T10:41:51;28.50;94.70
40848;DHT22;26570;50.962;5.340;2022-08-19T10:44:35;28.40;95.10
40848;DHT22;26570;50.962;5.340;2022-08-19T10:47:21;28.50;95.40
40848;DHT22;26570;50.962;5.340;2022-08-19T10:50:06;28.50;95.20
40848;DHT22;26570;50.962;5.340;2022-08-19T10:53:10;28.60;95.80
40848;DHT22;26570;50.962;5.340;2022-08-19T10:55:55;28.70;94.80
40848;DHT22;26570;50.962;5.340;2022-08-19T10:58:58;28.60;95.10
40848;DHT22;26570;50.962;5.340;2022-08-19T11:01:44;28.60;95.00
40848;DHT22;26570;50.962;5.340;2022-08-19T11:04:29;28.60;95.20
40848;DHT22;26570;50.962;5.340;2022-08-19T11:07:14;28.70;95.60
40848;DHT22;26570;50.962;5.340;2022-08-19T11:09:58;29.10;95.40
40848;DHT22;26570;50.962;5.340;2022-08-19T11:12:43;29.10;94.80
40848;DHT22;26570;50.962;5.340;2022-08-19T11:15:30;29.00;94.40
40848;DHT22;26570;50.962;5.340;2022-08-19T11:18:16;29.00;94.70
40848;DHT22;26570;50.962;5.340;2022-08-19T11:21:29;28.80;94.60
40848;DHT22;26570;50.962;5.340;2022-08-19T11:24:19;28.90;94.50
40848;DHT22;26570;50.962;5.340;2022-08-19T11:27:07;28.80;94.30
40848;DHT22;26570;50.962;5.340;2022-08-19T11:29:53;28.70;95.10
40848;DHT22;26570;50.962;5.340;2022-08-19T11:32:38;28.50;94.60
40848;DHT22;26570;50.962;5.340;2022-08-19T11:35:22;28.60;95.10
40848;DHT22;26570;50.962;5.340;2022-08-19T11:38:07;28.90;95.30
40848;DHT22;26570;50.962;5.340;2022-08-19T11:40:57;29.00;95.00
40848;DHT22;26570;50.962;5.340;2022-08-19T11:43:43;28.90;95.30
40848;DHT22;26570;50.962;5.340;2022-08-19T11:46:31;29.00;95.20
40848;DHT22;26570;50.962;5.340;2022-08-19T11:49:17;29.10;94.70
40848;DHT22;26570;50.962;5.340;2022-08-19T11:52:03;29.20;94.90
40848;DHT22;26570;50.962;5.340;2022-08-19T11:54:48;29.20;94.90
40848;DHT22;26570;50.962;5.340;2022-08-19T11:57:33;29.50;95.10
40848;DHT22;26570;50.962;5.340;2022-08-19T12:00:20;29.80;93.80
40848;DHT22;26570;50.962;5.340;2022-08-19T12:03:04;29.90;93.90
40848;DHT22;26570;50.962;5.340;2022-08-19T12:05:49;29.50;94.30
40848;DHT22;26570;50.962;5.340;2022-08-19T12:08:35;29.60;93.80
40848;DHT22;26570;50.962;5.340;2022-08-19T12:11:20;29.60;94.40
40848;DHT22;26570;50.962;5.340;2022-08-19T12:14:06;29.70;94.30
40848;DHT22;26570;50.962;5.340;2022-08-19T12:16:51;29.80;95.00
40848;DHT22;26570;50.962;5.340;2022-08-19T12:19:37;29.60;94.30
40848;DHT22;26570;50.962;5.340;2022-08-19T12:22:21;29.40;95.00
40848;DHT22;26570;50.962;5.340;2022-08-19T12:25:09;29.40;94.60
40848;DHT22;26570;50.962;5.340;2022-08-19T12:27:54;29.50;94.80
40848;DHT22;26570;50.962;5.340;2022-08-19T12:30:39;29.50;95.50
40848;DHT22;26570;50.962;5.340;2022-08-19T12:33:24;29.70;95.10
40848;DHT22;26570;50.962;5.340;2022-08-19T12:36:13;30.00;94.80
40848;DHT22;26570;50.962;5.340;2022-08-19T12:38:59;29.90;94.60
40848;DHT22;26570;50.962;5.340;2022-08-19T12:41:44;29.60;94.70
40848;DHT22;26570;50.962;5.340;2022-08-19T12:44:28;29.10;95.30
40848;DHT22;26570;50.962;5.340;2022-08-19T12:47:14;28.90;95.60
40848;DHT22;26570;50.962;5.340;2022-08-19T12:49:59;28.60;96.10
40848;DHT22;26570;50.962;5.340;2022-08-19T12:52:44;28.40;96.40
40848;DHT22;26570;50.962;5.340;2022-08-19T12:55:29;28.20;96.70
40848;DHT22;26570;50.962;5.340;2022-08-19T12:58:14;28.10;97.10
40848;DHT22;26570;50.962;5.340;2022-08-19T13:00:59;27.80;97.70
40848;DHT22;26570;50.962;5.340;2022-08-19T13:03:45;27.80;97.70
40848;DHT22;26570;50.962;5.340;2022-08-19T13:06:33;27.60;98.00
40848;DHT22;26570;50.962;5.340;2022-08-19T13:09:18;27.50;98.20
40848;DHT22;26570;50.962;5.340;2022-08-19T13:12:03;27.50;98.70
40848;DHT22;26570;50.962;5.340;2022-08-19T13:14:52;27.50;99.00
40848;DHT22;26570;50.962;5.340;2022-08-19T13:17:37;27.40;99.00
40848;DHT22;26570;50.962;5.340;2022-08-19T13:20:23;27.40;99.10
40848;DHT22;26570;50.962;5.340;2022-08-19T13:23:09;27.40;98.80
40848;DHT22;26570;50.962;5.340;2022-08-19T13:26:02;27.30;99.20
40848;DHT22;26570;50.962;5.340;2022-08-19T13:28:47;27.30;99.40
40848;DHT22;26570;50.962;5.340;2022-08-19T13:31:51;27.20;99.70
40848;DHT22;26570;50.962;5.340;2022-08-19T13:34:54;27.10;99.90
40848;DHT22;26570;50.962;5.340;2022-08-19T13:37:40;27.10;99.90
40848;DHT22;26570;50.962;5.340;2022-08-19T13:40:28;27.00;99.90
40848;DHT22;26570;50.962;5.340;2022-08-19T13:43:13;27.00;99.90
40848;DHT22;26570;50.962;5.340;2022-08-19T13:45:59;27.10;99.90
40848;DHT22;26570;50.962;5.340;2022-08-19T13:48:44;27.00;99.90
40848;DHT22;26570;50.962;5.340;2022-08-19T13:51:29;27.00;99.90
40848;DHT22;26570;50.962;5.340;2022-08-19T13:54:13;27.00;99.90
40848;DHT22;26570;50.962;5.340;2022-08-19T13:56:58;26.80;99.90
40848;DHT22;26570;50.962;5.340;2022-08-19T13:59:43;26.70;99.90
40848;DHT22;26570;50.962;5.340;2022-08-19T14:02:27;26.70;99.90
40848;DHT22;26570;50.962;5.340;2022-08-19T14:05:14;26.90;99.90
40848;DHT22;26570;50.962;5.340;2022-08-19T14:08:01;27.10;99.90
40848;DHT22;26570;50.962;5.340;2022-08-19T14:10:46;27.10;99.90
40848;DHT22;26570;50.962;5.340;2022-08-19T14:13:33;27.30;99.90
40848;DHT22;26570;50.962;5.340;2022-08-19T14:16:19;27.40;99.90
40848;DHT22;26570;50.962;5.340;2022-08-19T14:19:05;27.60;99.90
40848;DHT22;26570;50.962;5.340;2022-08-19T14:21:52;27.90;99.90
40848;DHT22;26570;50.962;5.340;2022-08-19T14:24:38;28.10;99.90
40848;DHT22;26570;50.962;5.340;2022-08-19T14:27:25;28.50;99.90
40848;DHT22;26570;50.962;5.340;2022-08-19T14:30:14;28.80;99.40
40848;DHT22;26570;50.962;5.340;2022-08-19T14:33:00;29.00;98.80
40848;DHT22;26570;50.962;5.340;2022-08-19T14:35:47;29.20;98.50
40848;DHT22;26570;50.962;5.340;2022-08-19T14:38:32;29.40;98.00
40848;DHT22;26570;50.962;5.340;2022-08-19T14:41:22;29.70;97.90
40848;DHT22;26570;50.962;5.340;2022-08-19T14:44:06;29.90;97.30
40848;DHT22;26570;50.962;5.340;2022-08-19T14:46:51;29.90;96.50
40848;DHT22;26570;50.962;5.340;2022-08-19T14:49:37;29.70;96.40
40848;DHT22;26570;50.962;5.340;2022-08-19T14:52:23;29.80;96.20
40848;DHT22;26570;50.962;5.340;2022-08-19T14:55:08;29.60;96.50
40848;DHT22;26570;50.962;5.340;2022-08-19T14:57:53;29.80;95.80
40848;DHT22;26570;50.962;5.340;2022-08-19T15:00:38;30.10;95.60
40848;DHT22;26570;50.962;5.340;2022-08-19T15:03:23;30.10;95.40
40848;DHT22;26570;50.962;5.340;2022-08-19T15:06:09;30.30;95.20
40848;DHT22;26570;50.962;5.340;2022-08-19T15:08:53;30.40;94.60
40848;DHT22;26570;50.962;5.340;2022-08-19T15:11:38;30.40;94.60
40848;DHT22;26570;50.962;5.340;2022-08-19T15:14:23;30.30;94.00
40848;DHT22;26570;50.962;5.340;2022-08-19T15:17:08;30.00;94.40
40848;DHT22;26570;50.962;5.340;2022-08-19T15:19:53;29.80;94.70
40848;DHT22;26570;50.962;5.340;2022-08-19T15:22:37;29.60;95.20
40848;DHT22;26570;50.962;5.340;2022-08-19T15:25:22;29.30;95.50
40848;DHT22;26570;50.962;5.340;2022-08-19T15:28:07;29.20;95.50
40848;DHT22;26570;50.962;5.340;2022-08-19T15:30:54;29.00;95.50
40848;DHT22;26570;50.962;5.340;2022-08-19T15:33:39;28.90;96.10
40848;DHT22;26570;50.962;5.340;2022-08-19T15:36:28;28.60;96.50
40848;DHT22;26570;50.962;5.340;2022-08-19T15:39:13;28.50;96.80
40848;DHT22;26570;50.962;5.340;2022-08-19T15:41:57;28.40;97.30
40848;DHT22;26570;50.962;5.340;2022-08-19T15:44:43;28.40;97.80
40848;DHT22;26570;50.962;5.340;2022-08-19T15:47:29;28.50;97.30
40848;DHT22;26570;50.962;5.340;2022-08-19T15:50:19;28.30;97.70
40848;DHT22;26570;50.962;5.340;2022-08-19T15:53:09;28.20;97.70
40848;DHT22;26570;50.962;5.340;2022-08-19T15:55:54;28.00;97.50
40848;DHT22;26570;50.962;5.340;2022-08-19T15:58:38;28.00;97.70
40848;DHT22;26570;50.962;5.340;2022-08-19T16:01:42;27.90;98.20
40848;DHT22;26570;50.962;5.340;2022-08-19T16:04:45;28.00;98.80
40848;DHT22;26570;50.962;5.340;2022-08-19T16:07:50;28.10;98.50
40848;DHT22;26570;50.962;5.340;2022-08-19T16:10:36;28.20;98.50
40848;DHT22;26570;50.962;5.340;2022-08-19T16:13:20;28.20;98.40
40848;DHT22;26570;50.962;5.340;2022-08-19T16:16:05;28.10;98.50
40848;DHT22;26570;50.962;5.340;2022-08-19T16:18:50;28.00;98.70
40848;DHT22;26570;50.962;5.340;2022-08-19T16:21:36;28.00;99.00
40848;DHT22;26570;50.962;5.340;2022-08-19T16:24:25;28.00;98.80
40848;DHT22;26570;50.962;5.340;2022-08-19T16:27:10;28.00;99.10
40848;DHT22;26570;50.962;5.340;2022-08-19T16:29:56;27.90;99.20
40848;DHT22;26570;50.962;5.340;2022-08-19T16:32:43;27.70;99.40
40848;DHT22;26570;50.962;5.340;2022-08-19T16:35:28;27.70;99.60
40848;DHT22;26570;50.962;5.340;2022-08-19T16:38:13;27.50;99.90
40848;DHT22;26570;50.962;5.340;2022-08-19T16:40:58;27.50;99.90
40848;DHT22;26570;50.962;5.340;2022-08-19T16:43:44;27.40;99.90
40848;DHT22;26570;50.962;5.340;2022-08-19T16:46:28;27.30;99.90
40848;DHT22;26570;50.962;5.340;2022-08-19T16:49:14;27.20;99.90
40848;DHT22;26570;50.962;5.340;2022-08-19T16:51:58;26.80;99.90
40848;DHT22;26570;50.962;5.340;2022-08-19T16:54:46;26.70;99.90
40848;DHT22;26570;50.962;5.340;2022-08-19T16:57:31;26.40;99.90
40848;DHT22;26570;50.962;5.340;2022-08-19T17:00:16;26.40;99.90
40848;DHT22;26570;50.962;5.340;2022-08-19T17:03:05;26.40;99.90
40848;DHT22;26570;50.962;5.340;2022-08-19T17:05:52;26.30;99.90
40848;DHT22;26570;50.962;5.340;2022-08-19T17:08:37;26.20;99.90
40848;DHT22;26570;50.962;5.340;2022-08-19T17:11:23;26.00;99.90
40848;DHT22;26570;50.962;5.340;2022-08-19T17:14:09;25.80;99.90
40848;DHT22;26570;50.962;5.340;2022-08-19T17:16:53;25.70;99.90
40848;DHT22;26570;50.962;5.340;2022-08-19T17:19:39;25.70;99.90
40848;DHT22;26570;50.962;5.340;2022-08-19T17:22:25;25.60;99.90
40848;DHT22;26570;50.962;5.340;2022-08-19T17:25:10;25.60;99.90
40848;DHT22;26570;50.962;5.340;2022-08-19T17:27:56;25.50;99.90
40848;DHT22;26570;50.962;5.340;2022-08-19T17:30:40;25.60;99.90
40848;DHT22;26570;50.962;5.340;2022-08-19T17:33:25;25.60;99.90
40848;DHT22;26570;50.962;5.340;2022-08-19T17:36:10;25.60;99.90
40848;DHT22;26570;50.962;5.340;2022-08-19T17:38:56;25.40;99.90